CheckWX is a tool to help pilots better visualize weather data.  It is not intended as a substitute for an official pre-flight weather briefing.

00:39:38 UTC

ENFL METAR
Florø Airport
Florø, Norway
Current

20 mins ago

ENFL 190020Z AUTO 09007KT 9999NDV NCD 08/03 Q1037
Observed
Apr-19 @ 00:20 UTC
Wind
  • 090° at 7 KTS
Visibility
Cloud Levels
  • Clear skies
Temperature
C / 46°F
Dewpoint
C / 37°F
Humidity
71%
Altimeter
30.62" Hg
Pressure
1036.91 hPa
Previous

50 mins ago

ENFL 182350Z AUTO 10005KT 9999NDV FEW230/// 08/03 Q1037
Observed
Apr-18 @ 23:50 UTC
Wind
  • 100° at 5 KTS
Visibility
Cloud Levels
  • Few at 23,000' AGL
Temperature
C / 46°F
Dewpoint
C / 37°F
Humidity
71%
Altimeter
30.62" Hg
Pressure
1036.91 hPa
Previous

1 hour ago

ENFL 182320Z AUTO 12004KT 9999NDV NCD 08/03 Q1037
Observed
Apr-18 @ 23:20 UTC
Wind
  • 120° at 4 KTS
Visibility
Cloud Levels
  • Clear skies
Temperature
C / 46°F
Dewpoint
C / 37°F
Humidity
71%
Altimeter
30.62" Hg
Pressure
1036.91 hPa